Disney Wonder — C6QM8 — position and weather

sailwx.info

Track history (hours):
 
Tides and Currents Weather Stations Pressure Air Temp Water Temp Dewpoint Dewpoint Depression Visibility Wind Speed Wind Dir Waves Ship Positions

Disney Wonder

Last reported at 2017-May-27 11:00 UTC. Time now 2017-May-28 06:47 UTC.
Position N 56°06' W 133°48'.

Length 301 m; draft 8.2 m.

Type: Passenger vessel. MMSI: 308457000.

Wind from 170 at 5 knots

Barometer 1023.0 mb
Air temperature 9.0 ° C
Visibility: greater than 10.8 NM
Dewpoint 4.5 ° C
Water temperature 9.0 ° C

Date/timePositionNaut miles runAvg speedWind from/ knotsBaromVisibWave heightAir tempDewpointWater temp
2017-May-27 11:00N 56°06' W 133°48'129 5.4 170 / 51023.010.8 9.0 4.5 9.0
2017-May-26 11:00N 58°12' W 134°42'20 0.8 250 / 61018.010.8 13.0 9.110.0
2017-May-25 11:00N 58°30' W 135°00'68 4.2 150 / 151022.010.8 15.011.310.0
2017-May-24 19:00N 57°36' W 133°42'13917.3 310 / 31024.010.8 14.0 2.814.0
2017-May-24 11:00N 55°18' W 134°06'8414.0 300 / 251022.010.8 10.0 5.614.0
2017-May-24 05:00N 54°30' W 132°06'16315.4 290 / 301015.010.8 11.0 6.815.0
2017-May-23 18:26N 52°35' W 128°52'1617.8
2017-May-23 17:31N 52°19' W 128°51'218.0
2017-May-23 17:25N 52°17' W 128°52'717.8
2017-May-23 17:00N 52°10' W 128°55'917.2
2017-May-23 16:30N 52°01' W 128°57'816.6
2017-May-23 16:00N 51°54' W 128°52'918.0
2017-May-23 15:30N 51°45' W 128°48'918.0
2017-May-23 15:00N 51°36' W 128°45'918.0
2017-May-23 14:30N 51°28' W 128°41'1616.5
2017-May-23 13:30N 51°13' W 128°28'917.9
2017-May-23 13:00N 51°09' W 128°16'1018.3
2017-May-23 12:28N 51°04' W 128°02'918.7
2017-May-23 12:00N 51°00' W 127°50'1019.9
2017-May-23 11:30N 50°54' W 127°38'1019.8
2017-May-23 11:00N 50°49' W 127°24'1019.1
2017-May-23 10:30N 50°45' W 127°10'918.9
2017-May-23 10:00N 50°42' W 126°56'6115.4
2017-May-23 06:03N 50°20' W 125°26'113.7
2017-May-23 05:57N 50°19' W 125°25'716.5
2017-May-23 05:30N 50°12' W 125°22'713.6
2017-May-23 05:00N 50°06' W 125°18'714.0
2017-May-23 04:30N 49°60' W 125°13'816.8
2017-May-23 04:00N 49°54' W 125°03'1121.4
2017-May-23 03:30N 49°47' W 124°50'1121.4
2017-May-23 03:00N 49°41' W 124°37'1121.6
2017-May-23 02:30N 49°34' W 124°24'2420.3
2017-May-23 01:19N 49°25' W 123°50'822.2
2017-May-23 00:59N 49°22' W 123°39'1122.1
2017-May-23 00:30N 49°19' W 123°24'1019.9
2017-May-23 00:00N 49°19' W 123°08'2 3.7
2017-May-22 23:30N 49°17' W 123°07'0 0.0
2017-May-22 23:00N 49°17' W 123°07'0 0.0
2017-May-22 22:30N 49°17' W 123°07'0 0.0
2017-May-22 22:00N 49°17' W 123°07'0 0.0
2017-May-22 21:30N 49°17' W 123°07'0 0.0
2017-May-22 21:00N 49°17' W 123°07'0 0.0
2017-May-22 20:30N 49°17' W 123°07'0 0.0
2017-May-22 20:00N 49°17' W 123°07'0 0.0
2017-May-22 19:30N 49°17' W 123°07'0 0.0
2017-May-22 19:00N 49°17' W 123°07'0 0.0
2017-May-22 18:30N 49°17' W 123°07'0 0.0
2017-May-22 18:00N 49°17' W 123°07'0 0.0
2017-May-22 17:30N 49°17' W 123°07'0 0.0
2017-May-22 17:00N 49°17' W 123°07'0 0.0
2017-May-22 16:30N 49°17' W 123°07'0 0.0
2017-May-22 16:00N 49°17' W 123°07'0 0.0
2017-May-22 15:30N 49°17' W 123°07'0 0.0
2017-May-22 15:00N 49°17' W 123°07'0 0.0
2017-May-22 14:01N 49°17' W 123°07'1 1.3
2017-May-22 13:30N 49°18' W 123°06'3 6.5
2017-May-22 13:00N 49°19' W 123°11'4 8.7
2017-May-22 12:30N 49°17' W 123°17'5 9.4
2017-May-22 12:01N 49°13' W 123°19'4 8.7
2017-May-22 11:30N 49°09' W 123°20'5 9.1
2017-May-22 10:58N 49°04' W 123°20'510.1
2017-May-22 10:26N 48°60' W 123°14'510.2
2017-May-22 10:00N 48°57' W 123°09'612.7
2017-May-22 09:30N 48°53' W 123°02'714.2
2017-May-22 09:00N 48°46' W 123°03'917.6
2017-May-22 08:30N 48°42' W 123°15'917.0
2017-May-22 08:00N 48°33' W 123°13'918.0
2017-May-22 07:30N 48°24' W 123°11'815.5
2017-May-22 06:58N 48°21' W 123°23'510.3
2017-May-22 06:29N 48°17' W 123°26'5 9.9
2017-May-22 06:00N 48°14' W 123°32'710.5
2017-May-22 05:19N 48°13' W 123°43'310.3
2017-May-22 05:00N 48°13' W 123°47'611.2
2017-May-22 04:30N 48°13' W 123°56'917.3
2017-May-22 04:00N 48°17' W 124°08'817.1
2017-May-22 03:30N 48°21' W 124°19'917.3
2017-May-22 03:00N 48°25' W 124°31'817.0
2017-May-22 02:30N 48°28' W 124°42'816.6
2017-May-22 02:00N 48°29' W 124°55'715.0
2017-May-22 01:30N 48°24' W 125°03'816.5
2017-May-22 01:00N 48°16' W 125°08'816.8
2017-May-22 00:30N 48°08' W 125°11'816.7
2017-May-22 00:00N 48°00' W 125°16'816.2
2017-May-21 23:30N 47°52' W 125°19'916.3
2017-May-21 22:58N 47°43' W 125°18'716.3
2017-May-21 22:30N 47°36' W 125°18'816.4
2017-May-21 22:00N 47°28' W 125°17'816.8
2017-May-21 21:30N 47°20' W 125°16'917.0
2017-May-21 21:00N 47°11' W 125°16'817.1
2017-May-21 20:30N 47°03' W 125°15'917.0
2017-May-21 20:00N 46°54' W 125°14'917.0
2017-May-21 19:30N 46°46' W 125°14'917.3
2017-May-21 19:00N 46°37' W 125°13'917.4
2017-May-21 18:30N 46°28' W 125°12'917.6
2017-May-21 18:00N 46°19' W 125°12'917.5
2017-May-21 17:30N 46°11' W 125°11'917.5
2017-May-21 17:00N 46°02' W 125°10'4227.7
2017-May-21 17:00N 46°00' W 125°06'714.5 020 / 211026.0 5.4 13.0 9.115.0
2017-May-21 16:30N 45°53' W 125°09'917.2
2017-May-21 16:00N 45°45' W 125°09'917.3
2017-May-21 15:30N 45°36' W 125°08'917.3
2017-May-21 14:58N 45°27' W 125°08'817.2
2017-May-21 14:30N 45°19' W 125°07'1717.0
2017-May-21 13:30N 45°02' W 125°06'917.2
2017-May-21 13:00N 44°53' W 125°05'4281.8
2017-May-21 13:00N 44°54' W 125°00'1020.2 010 / 201021.110.8 13.0 9.114.2
2017-May-21 12:30N 44°45' W 125°04'917.2
2017-May-21 12:00N 44°36' W 125°04'917.3
2017-May-21 11:30N 44°28' W 125°03'1217.1
2017-May-21 10:49N 44°16' W 125°02'517.0
2017-May-21 10:29N 44°10' W 125°02'816.7
2017-May-21 10:00N 44°02' W 125°01'2739.6
2017-May-21 10:00N 44°00' W 125°00'813.4 010 / 251021.010.8 15.011.315.0
2017-May-21 09:23N 43°52' W 125°00'7015.9
2017-May-21 05:00N 42°42' W 124°54'6015.0 020 / 351018.010.8 14.010.214.5
2017-May-21 01:00N 41°42' W 124°48'5418.1 340 / 301017.010.8 14.212.214.2
2017-May-20 22:00N 40°48' W 124°42'6713.5 010 / 201020.010.8 13.011.112.0
2017-May-20 17:00N 39°42' W 124°24'3314.8 340 / 341015.010.8 15.011.314.5
2017-May-20 14:46N 39°11' W 124°08'1716.2
2017-May-20 13:43N 38°55' W 124°02'416.6
2017-May-20 13:30N 38°52' W 124°01'816.5
2017-May-20 13:00N 38°45' W 123°55'816.8
2017-May-20 12:30N 38°38' W 123°49'816.9
2017-May-20 12:00N 38°31' W 123°42'816.6
2017-May-20 11:30N 38°25' W 123°36'816.6
2017-May-20 11:00N 38°18' W 123°29'816.7
2017-May-20 10:31N 38°11' W 123°23'917.7
2017-May-20 10:00N 38°05' W 123°16'917.9
2017-May-20 09:30N 37°58' W 123°08'918.1
2017-May-20 09:00N 37°54' W 122°58'918.2
2017-May-20 08:30N 37°49' W 122°48'714.6
2017-May-20 08:01N 37°46' W 122°40'815.7
2017-May-20 07:31N 37°49' W 122°30'510.1
2017-May-20 07:00N 37°48' W 122°24'0 0.1
2017-May-20 06:29N 37°48' W 122°24'0 0.0
2017-May-20 05:59N 37°48' W 122°24'0 0.0
2017-May-20 05:29N 37°48' W 122°24'0 0.0
2017-May-20 04:56N 37°48' W 122°24'0 0.0
2017-May-20 04:29N 37°48' W 122°24'0 0.0
2017-May-20 03:59N 37°48' W 122°24'0 0.0
2017-May-20 03:29N 37°48' W 122°24'0 0.0
2017-May-20 02:59N 37°48' W 122°24'0 0.0
2017-May-20 02:29N 37°48' W 122°24'0 0.0
2017-May-20 01:53N 37°48' W 122°24'0 0.0
2017-May-20 01:29N 37°48' W 122°24'0 0.0
2017-May-20 00:59N 37°48' W 122°24'0 0.0
2017-May-20 00:29N 37°48' W 122°24'0 0.0
2017-May-19 23:59N 37°48' W 122°24'0 0.0
2017-May-19 23:29N 37°48' W 122°24'0 0.0
2017-May-19 22:59N 37°48' W 122°24'0 0.0
2017-May-19 22:29N 37°48' W 122°24'0 0.0
2017-May-19 21:59N 37°48' W 122°24'0 0.0
2017-May-19 21:29N 37°48' W 122°24'0 0.0
2017-May-19 20:59N 37°48' W 122°24'0 0.0
2017-May-19 20:29N 37°48' W 122°24'0 0.0
2017-May-19 19:59N 37°48' W 122°24'0 0.0
2017-May-19 19:29N 37°48' W 122°24'0 0.0
2017-May-19 18:59N 37°48' W 122°24'0 0.0
2017-May-19 18:29N 37°48' W 122°24'0 0.0
2017-May-19 17:59N 37°48' W 122°24'0 0.0
2017-May-19 17:29N 37°48' W 122°24'0 0.0
2017-May-19 16:59N 37°48' W 122°24'0 0.0
2017-May-19 16:29N 37°48' W 122°24'0 0.0
2017-May-19 15:59N 37°48' W 122°24'0 0.0
2017-May-19 15:29N 37°48' W 122°24'0 0.0
2017-May-19 14:59N 37°48' W 122°24'3 3.3
2017-May-19 14:00N 37°49' W 122°28'510.4
2017-May-19 13:30N 37°47' W 122°34'510.1
2017-May-19 13:00N 37°45' W 122°40'611.5
2017-May-19 12:30N 37°39' W 122°40'816.7
2017-May-19 12:00N 37°30' W 122°40'917.1
2017-May-19 11:30N 37°22' W 122°40'917.3
2017-May-19 11:00N 37°13' W 122°40'917.7
2017-May-19 10:30N 37°05' W 122°37'1020.7
2017-May-19 10:00N 36°55' W 122°31'9662.4
2017-May-19 10:00N 36°48' W 122°24'2 4.2 330 / 161014.010.8 14.010.211.5
2017-May-19 09:30N 36°46' W 122°25'1019.9
2017-May-19 09:00N 36°37' W 122°22'1020.4
2017-May-19 08:30N 36°27' W 122°17'1020.2
2017-May-19 08:00N 36°18' W 122°12'1020.3
2017-May-19 07:30N 36°09' W 122°07'1020.3
2017-May-19 07:00N 35°60' W 122°02'1019.3
2017-May-19 06:30N 35°51' W 121°57'919.0
2017-May-19 06:00N 35°42' W 121°53'4261.5
2017-May-19 06:00N 35°42' W 121°48'714.9 320 / 251015.010.8 14.010.212.5
2017-May-19 05:30N 35°37' W 121°54'713.2
2017-May-19 05:00N 35°39' W 122°02'3 6.3
2017-May-19 04:30N 35°40' W 122°05'4 8.3
2017-May-19 04:00N 35°38' W 122°01'4 8.6
2017-May-19 03:30N 35°36' W 121°56'4 8.4
2017-May-19 03:00N 35°34' W 121°52'4 8.0
2017-May-19 02:30N 35°32' W 121°47'4 8.2
2017-May-19 02:00N 35°30' W 121°43'5 9.0
2017-May-19 01:27N 35°26' W 121°39'4 8.0
2017-May-19 01:00N 35°23' W 121°37'1117.4
2017-May-19 01:00N 35°24' W 121°36'510.3 320 / 221012.0 5.4 16.012.412.0
2017-May-19 00:30N 35°19' W 121°34'5 9.1
2017-May-19 00:00N 35°15' W 121°31'4 8.9
2017-May-18 23:30N 35°11' W 121°29'5 9.1
2017-May-18 23:00N 35°08' W 121°25'5 9.4
2017-May-18 22:30N 35°04' W 121°23'5 9.5
2017-May-18 22:00N 34°59' W 121°20'5 9.3
2017-May-18 21:30N 34°55' W 121°18'5 9.2
2017-May-18 21:00N 34°51' W 121°16'5 9.3
2017-May-18 20:30N 34°47' W 121°13'5 9.1
2017-May-18 20:00N 34°43' W 121°10'4 9.1
2017-May-18 19:30N 34°39' W 121°08'5 9.3
2017-May-18 19:00N 34°35' W 121°05'5 9.2
2017-May-18 18:30N 34°30' W 121°03'5 9.1
2017-May-18 18:00N 34°26' W 121°00'5 9.1
2017-May-18 17:30N 34°22' W 120°58'5 9.3
2017-May-18 17:00N 34°18' W 120°55'4 9.0
2017-May-18 16:30N 34°14' W 120°52'5 9.0
2017-May-18 16:00N 34°10' W 120°50'5 9.1
2017-May-18 15:29N 34°06' W 120°47'4 9.2
2017-May-18 15:00N 34°02' W 120°45'9 9.1
2017-May-18 13:59N 33°57' W 120°36'5 9.4
2017-May-18 13:30N 33°55' W 120°31'5 9.5
2017-May-18 13:00N 33°52' W 120°26'4302.7
2017-May-18 13:00N 33°54' W 120°30'917.4 340 / 241005.010.8 14.0 11.0
2017-May-18 12:30N 33°50' W 120°21'5 9.7
2017-May-18 12:00N 33°48' W 120°16'710.3
2017-May-18 11:20N 33°45' W 120°08'410.4
2017-May-18 10:59N 33°43' W 120°04'510.4
2017-May-18 10:28N 33°41' W 119°58'1021.2
2017-May-18 10:00N 33°36' W 119°48'455.3 330 / 191012.010.8 15.011.317.0
2017-May-18 09:55N 33°38' W 119°52'410.4
2017-May-18 09:30N 33°36' W 119°48'510.3
2017-May-18 09:00N 33°34' W 119°42'510.4
2017-May-18 08:30N 33°32' W 119°37'612.0
2017-May-18 08:00N 33°29' W 119°30'917.4
2017-May-18 07:31N 33°26' W 119°21'917.4
2017-May-18 07:01N 33°22' W 119°11'917.2
2017-May-18 06:31N 33°18' W 119°02'917.1
2017-May-18 06:01N 33°15' W 118°53'917.1
2017-May-18 05:31N 33°11' W 118°43'917.1
2017-May-18 05:01N 33°08' W 118°34'4225.8
2017-May-18 05:00N 33°06' W 118°30'5 9.6 320 / 91012.010.8 15.0 9.216.2
2017-May-18 04:30N 33°05' W 118°25'816.8
2017-May-18 04:00N 33°01' W 118°16'917.1
2017-May-18 03:30N 32°58' W 118°06'917.2
2017-May-18 03:00N 32°54' W 117°57'917.1
2017-May-18 02:30N 32°50' W 117°48'917.1
2017-May-18 02:01N 32°46' W 117°39'5288.4
2017-May-18 02:00N 32°42' W 117°36'510.6 290 / 101011.210.8 17.013.517.0
2017-May-18 01:31N 32°43' W 117°30'816.6
2017-May-18 01:01N 32°39' W 117°21'612.7
2017-May-18 00:30N 32°39' W 117°14'5 9.2
2017-May-18 00:00N 32°43' W 117°12'1 0.1
2017-May-17 13:56N 32°43' W 117°11'0 0.0
2017-May-17 13:26N 32°43' W 117°11'0 0.7
2017-May-17 13:00N 32°43' W 117°11'3 6.1
2017-May-17 12:30N 32°41' W 117°14'4 8.8
2017-May-17 12:00N 32°37' W 117°14'4 8.1
2017-May-17 11:30N 32°35' W 117°19'4 8.3
2017-May-17 11:00N 32°34' W 117°23'  
Track history (hours):
 
Tides and Currents Weather Stations Pressure Air Temp Water Temp Dewpoint Dewpoint Depression Visibility Wind Speed Wind Dir Waves Ship Positions

Disney Wonder

Last reported at 2017-May-27 11:00 UTC. Time now 2017-May-28 06:47 UTC.
Position N 56°06' W 133°48'.

Length 301 m; draft 8.2 m.

Type: Passenger vessel. MMSI: 308457000.

Wind from 170 at 5 knots

Barometer 1023.0 mb
Air temperature 9.0 ° C
Visibility: greater than 10.8 NM
Dewpoint 4.5 ° C
Water temperature 9.0 ° C

Date/timePositionNaut miles runAvg speedWind from/ knotsBaromVisibWave heightAir tempDewpointWater temp
2017-May-27 11:00N 56°06' W 133°48'129 5.4 170 / 51023.010.8 9.0 4.5 9.0
2017-May-26 11:00N 58°12' W 134°42'20 0.8 250 / 61018.010.8 13.0 9.110.0
2017-May-25 11:00N 58°30' W 135°00'68 4.2 150 / 151022.010.8 15.011.310.0
2017-May-24 19:00N 57°36' W 133°42'13917.3 310 / 31024.010.8 14.0 2.814.0
2017-May-24 11:00N 55°18' W 134°06'8414.0 300 / 251022.010.8 10.0 5.614.0
2017-May-24 05:00N 54°30' W 132°06'16315.4 290 / 301015.010.8 11.0 6.815.0
2017-May-23 18:26N 52°35' W 128°52'1617.8
2017-May-23 17:31N 52°19' W 128°51'218.0
2017-May-23 17:25N 52°17' W 128°52'717.8
2017-May-23 17:00N 52°10' W 128°55'917.2
2017-May-23 16:30N 52°01' W 128°57'816.6
2017-May-23 16:00N 51°54' W 128°52'918.0
2017-May-23 15:30N 51°45' W 128°48'918.0
2017-May-23 15:00N 51°36' W 128°45'918.0
2017-May-23 14:30N 51°28' W 128°41'1616.5
2017-May-23 13:30N 51°13' W 128°28'917.9
2017-May-23 13:00N 51°09' W 128°16'1018.3
2017-May-23 12:28N 51°04' W 128°02'918.7
2017-May-23 12:00N 51°00' W 127°50'1019.9
2017-May-23 11:30N 50°54' W 127°38'1019.8
2017-May-23 11:00N 50°49' W 127°24'1019.1
2017-May-23 10:30N 50°45' W 127°10'918.9
2017-May-23 10:00N 50°42' W 126°56'6115.4
2017-May-23 06:03N 50°20' W 125°26'113.7
2017-May-23 05:57N 50°19' W 125°25'716.5
2017-May-23 05:30N 50°12' W 125°22'713.6
2017-May-23 05:00N 50°06' W 125°18'714.0
2017-May-23 04:30N 49°60' W 125°13'816.8
2017-May-23 04:00N 49°54' W 125°03'1121.4
2017-May-23 03:30N 49°47' W 124°50'1121.4
2017-May-23 03:00N 49°41' W 124°37'1121.6
2017-May-23 02:30N 49°34' W 124°24'2420.3
2017-May-23 01:19N 49°25' W 123°50'822.2
2017-May-23 00:59N 49°22' W 123°39'1122.1
2017-May-23 00:30N 49°19' W 123°24'1019.9
2017-May-23 00:00N 49°19' W 123°08'2 3.7
2017-May-22 23:30N 49°17' W 123°07'0 0.0
2017-May-22 23:00N 49°17' W 123°07'0 0.0
2017-May-22 22:30N 49°17' W 123°07'0 0.0
2017-May-22 22:00N 49°17' W 123°07'0 0.0
2017-May-22 21:30N 49°17' W 123°07'0 0.0
2017-May-22 21:00N 49°17' W 123°07'0 0.0
2017-May-22 20:30N 49°17' W 123°07'0 0.0
2017-May-22 20:00N 49°17' W 123°07'0 0.0
2017-May-22 19:30N 49°17' W 123°07'0 0.0
2017-May-22 19:00N 49°17' W 123°07'0 0.0
2017-May-22 18:30N 49°17' W 123°07'0 0.0
2017-May-22 18:00N 49°17' W 123°07'0 0.0
2017-May-22 17:30N 49°17' W 123°07'0 0.0
2017-May-22 17:00N 49°17' W 123°07'0 0.0
2017-May-22 16:30N 49°17' W 123°07'0 0.0
2017-May-22 16:00N 49°17' W 123°07'0 0.0
2017-May-22 15:30N 49°17' W 123°07'0 0.0
2017-May-22 15:00N 49°17' W 123°07'0 0.0
2017-May-22 14:01N 49°17' W 123°07'1 1.3
2017-May-22 13:30N 49°18' W 123°06'3 6.5
2017-May-22 13:00N 49°19' W 123°11'4 8.7
2017-May-22 12:30N 49°17' W 123°17'5 9.4
2017-May-22 12:01N 49°13' W 123°19'4 8.7
2017-May-22 11:30N 49°09' W 123°20'5 9.1
2017-May-22 10:58N 49°04' W 123°20'510.1
2017-May-22 10:26N 48°60' W 123°14'510.2
2017-May-22 10:00N 48°57' W 123°09'612.7
2017-May-22 09:30N 48°53' W 123°02'714.2
2017-May-22 09:00N 48°46' W 123°03'917.6
2017-May-22 08:30N 48°42' W 123°15'917.0
2017-May-22 08:00N 48°33' W 123°13'918.0
2017-May-22 07:30N 48°24' W 123°11'815.5
2017-May-22 06:58N 48°21' W 123°23'510.3
2017-May-22 06:29N 48°17' W 123°26'5 9.9
2017-May-22 06:00N 48°14' W 123°32'710.5
2017-May-22 05:19N 48°13' W 123°43'310.3
2017-May-22 05:00N 48°13' W 123°47'611.2
2017-May-22 04:30N 48°13' W 123°56'917.3
2017-May-22 04:00N 48°17' W 124°08'817.1
2017-May-22 03:30N 48°21' W 124°19'917.3
2017-May-22 03:00N 48°25' W 124°31'817.0
2017-May-22 02:30N 48°28' W 124°42'816.6
2017-May-22 02:00N 48°29' W 124°55'715.0
2017-May-22 01:30N 48°24' W 125°03'816.5
2017-May-22 01:00N 48°16' W 125°08'816.8
2017-May-22 00:30N 48°08' W 125°11'816.7
2017-May-22 00:00N 48°00' W 125°16'816.2
2017-May-21 23:30N 47°52' W 125°19'916.3
2017-May-21 22:58N 47°43' W 125°18'716.3
2017-May-21 22:30N 47°36' W 125°18'816.4
2017-May-21 22:00N 47°28' W 125°17'816.8
2017-May-21 21:30N 47°20' W 125°16'917.0
2017-May-21 21:00N 47°11' W 125°16'817.1
2017-May-21 20:30N 47°03' W 125°15'917.0
2017-May-21 20:00N 46°54' W 125°14'917.0
2017-May-21 19:30N 46°46' W 125°14'917.3
2017-May-21 19:00N 46°37' W 125°13'917.4
2017-May-21 18:30N 46°28' W 125°12'917.6
2017-May-21 18:00N 46°19' W 125°12'917.5
2017-May-21 17:30N 46°11' W 125°11'917.5
2017-May-21 17:00N 46°02' W 125°10'4227.7
2017-May-21 17:00N 46°00' W 125°06'714.5 020 / 211026.0 5.4 13.0 9.115.0
2017-May-21 16:30N 45°53' W 125°09'917.2
2017-May-21 16:00N 45°45' W 125°09'917.3
2017-May-21 15:30N 45°36' W 125°08'917.3
2017-May-21 14:58N 45°27' W 125°08'817.2
2017-May-21 14:30N 45°19' W 125°07'1717.0
2017-May-21 13:30N 45°02' W 125°06'917.2
2017-May-21 13:00N 44°53' W 125°05'4281.8
2017-May-21 13:00N 44°54' W 125°00'1020.2 010 / 201021.110.8 13.0 9.114.2
2017-May-21 12:30N 44°45' W 125°04'917.2
2017-May-21 12:00N 44°36' W 125°04'917.3
2017-May-21 11:30N 44°28' W 125°03'1217.1
2017-May-21 10:49N 44°16' W 125°02'517.0
2017-May-21 10:29N 44°10' W 125°02'816.7
2017-May-21 10:00N 44°02' W 125°01'2739.6
2017-May-21 10:00N 44°00' W 125°00'813.4 010 / 251021.010.8 15.011.315.0
2017-May-21 09:23N 43°52' W 125°00'7015.9
2017-May-21 05:00N 42°42' W 124°54'6015.0 020 / 351018.010.8 14.010.214.5
2017-May-21 01:00N 41°42' W 124°48'5418.1 340 / 301017.010.8 14.212.214.2
2017-May-20 22:00N 40°48' W 124°42'6713.5 010 / 201020.010.8 13.011.112.0
2017-May-20 17:00N 39°42' W 124°24'3314.8 340 / 341015.010.8 15.011.314.5
2017-May-20 14:46N 39°11' W 124°08'1716.2
2017-May-20 13:43N 38°55' W 124°02'416.6
2017-May-20 13:30N 38°52' W 124°01'816.5
2017-May-20 13:00N 38°45' W 123°55'816.8
2017-May-20 12:30N 38°38' W 123°49'816.9
2017-May-20 12:00N 38°31' W 123°42'816.6
2017-May-20 11:30N 38°25' W 123°36'816.6
2017-May-20 11:00N 38°18' W 123°29'816.7
2017-May-20 10:31N 38°11' W 123°23'917.7
2017-May-20 10:00N 38°05' W 123°16'917.9
2017-May-20 09:30N 37°58' W 123°08'918.1
2017-May-20 09:00N 37°54' W 122°58'918.2
2017-May-20 08:30N 37°49' W 122°48'714.6
2017-May-20 08:01N 37°46' W 122°40'815.7
2017-May-20 07:31N 37°49' W 122°30'510.1
2017-May-20 07:00N 37°48' W 122°24'0 0.1
2017-May-20 06:29N 37°48' W 122°24'0 0.0
2017-May-20 05:59N 37°48' W 122°24'0 0.0
2017-May-20 05:29N 37°48' W 122°24'0 0.0
2017-May-20 04:56N 37°48' W 122°24'0 0.0
2017-May-20 04:29N 37°48' W 122°24'0 0.0
2017-May-20 03:59N 37°48' W 122°24'0 0.0
2017-May-20 03:29N 37°48' W 122°24'0 0.0
2017-May-20 02:59N 37°48' W 122°24'0 0.0
2017-May-20 02:29N 37°48' W 122°24'0 0.0
2017-May-20 01:53N 37°48' W 122°24'0 0.0
2017-May-20 01:29N 37°48' W 122°24'0 0.0
2017-May-20 00:59N 37°48' W 122°24'0 0.0
2017-May-20 00:29N 37°48' W 122°24'0 0.0
2017-May-19 23:59N 37°48' W 122°24'0 0.0
2017-May-19 23:29N 37°48' W 122°24'0 0.0
2017-May-19 22:59N 37°48' W 122°24'0 0.0
2017-May-19 22:29N 37°48' W 122°24'0 0.0
2017-May-19 21:59N 37°48' W 122°24'0 0.0
2017-May-19 21:29N 37°48' W 122°24'0 0.0
2017-May-19 20:59N 37°48' W 122°24'0 0.0
2017-May-19 20:29N 37°48' W 122°24'0 0.0
2017-May-19 19:59N 37°48' W 122°24'0 0.0
2017-May-19 19:29N 37°48' W 122°24'0 0.0
2017-May-19 18:59N 37°48' W 122°24'0 0.0
2017-May-19 18:29N 37°48' W 122°24'0 0.0
2017-May-19 17:59N 37°48' W 122°24'0 0.0
2017-May-19 17:29N 37°48' W 122°24'0 0.0
2017-May-19 16:59N 37°48' W 122°24'0 0.0
2017-May-19 16:29N 37°48' W 122°24'0 0.0
2017-May-19 15:59N 37°48' W 122°24'0 0.0
2017-May-19 15:29N 37°48' W 122°24'0 0.0
2017-May-19 14:59N 37°48' W 122°24'3 3.3
2017-May-19 14:00N 37°49' W 122°28'510.4
2017-May-19 13:30N 37°47' W 122°34'510.1
2017-May-19 13:00N 37°45' W 122°40'611.5
2017-May-19 12:30N 37°39' W 122°40'816.7
2017-May-19 12:00N 37°30' W 122°40'917.1
2017-May-19 11:30N 37°22' W 122°40'917.3
2017-May-19 11:00N 37°13' W 122°40'917.7
2017-May-19 10:30N 37°05' W 122°37'1020.7
2017-May-19 10:00N 36°55' W 122°31'9662.4
2017-May-19 10:00N 36°48' W 122°24'2 4.2 330 / 161014.010.8 14.010.211.5
2017-May-19 09:30N 36°46' W 122°25'1019.9
2017-May-19 09:00N 36°37' W 122°22'1020.4
2017-May-19 08:30N 36°27' W 122°17'1020.2
2017-May-19 08:00N 36°18' W 122°12'1020.3
2017-May-19 07:30N 36°09' W 122°07'1020.3
2017-May-19 07:00N 35°60' W 122°02'1019.3
2017-May-19 06:30N 35°51' W 121°57'919.0
2017-May-19 06:00N 35°42' W 121°53'4261.5
2017-May-19 06:00N 35°42' W 121°48'714.9 320 / 251015.010.8 14.010.212.5
2017-May-19 05:30N 35°37' W 121°54'713.2
2017-May-19 05:00N 35°39' W 122°02'3 6.3
2017-May-19 04:30N 35°40' W 122°05'4 8.3
2017-May-19 04:00N 35°38' W 122°01'4 8.6
2017-May-19 03:30N 35°36' W 121°56'4 8.4
2017-May-19 03:00N 35°34' W 121°52'4 8.0
2017-May-19 02:30N 35°32' W 121°47'4 8.2
2017-May-19 02:00N 35°30' W 121°43'5 9.0
2017-May-19 01:27N 35°26' W 121°39'4 8.0
2017-May-19 01:00N 35°23' W 121°37'1117.4
2017-May-19 01:00N 35°24' W 121°36'510.3 320 / 221012.0 5.4 16.012.412.0
2017-May-19 00:30N 35°19' W 121°34'5 9.1
2017-May-19 00:00N 35°15' W 121°31'4 8.9
2017-May-18 23:30N 35°11' W 121°29'5 9.1
2017-May-18 23:00N 35°08' W 121°25'5 9.4
2017-May-18 22:30N 35°04' W 121°23'5 9.5
2017-May-18 22:00N 34°59' W 121°20'5 9.3
2017-May-18 21:30N 34°55' W 121°18'5 9.2
2017-May-18 21:00N 34°51' W 121°16'5 9.3
2017-May-18 20:30N 34°47' W 121°13'5 9.1
2017-May-18 20:00N 34°43' W 121°10'4 9.1
2017-May-18 19:30N 34°39' W 121°08'5 9.3
2017-May-18 19:00N 34°35' W 121°05'5 9.2
2017-May-18 18:30N 34°30' W 121°03'5 9.1
2017-May-18 18:00N 34°26' W 121°00'5 9.1
2017-May-18 17:30N 34°22' W 120°58'5 9.3
2017-May-18 17:00N 34°18' W 120°55'4 9.0
2017-May-18 16:30N 34°14' W 120°52'5 9.0
2017-May-18 16:00N 34°10' W 120°50'5 9.1
2017-May-18 15:29N 34°06' W 120°47'4 9.2
2017-May-18 15:00N 34°02' W 120°45'9 9.1
2017-May-18 13:59N 33°57' W 120°36'5 9.4
2017-May-18 13:30N 33°55' W 120°31'5 9.5
2017-May-18 13:00N 33°52' W 120°26'4302.7
2017-May-18 13:00N 33°54' W 120°30'917.4 340 / 241005.010.8 14.0 11.0
2017-May-18 12:30N 33°50' W 120°21'5 9.7
2017-May-18 12:00N 33°48' W 120°16'710.3
2017-May-18 11:20N 33°45' W 120°08'410.4
2017-May-18 10:59N 33°43' W 120°04'510.4
2017-May-18 10:28N 33°41' W 119°58'1021.2
2017-May-18 10:00N 33°36' W 119°48'455.3 330 / 191012.010.8 15.011.317.0
2017-May-18 09:55N 33°38' W 119°52'410.4
2017-May-18 09:30N 33°36' W 119°48'510.3
2017-May-18 09:00N 33°34' W 119°42'510.4
2017-May-18 08:30N 33°32' W 119°37'612.0
2017-May-18 08:00N 33°29' W 119°30'917.4
2017-May-18 07:31N 33°26' W 119°21'917.4
2017-May-18 07:01N 33°22' W 119°11'917.2
2017-May-18 06:31N 33°18' W 119°02'917.1
2017-May-18 06:01N 33°15' W 118°53'917.1
2017-May-18 05:31N 33°11' W 118°43'917.1
2017-May-18 05:01N 33°08' W 118°34'4225.8
2017-May-18 05:00N 33°06' W 118°30'5 9.6 320 / 91012.010.8 15.0 9.216.2
2017-May-18 04:30N 33°05' W 118°25'816.8
2017-May-18 04:00N 33°01' W 118°16'917.1
2017-May-18 03:30N 32°58' W 118°06'917.2
2017-May-18 03:00N 32°54' W 117°57'917.1
2017-May-18 02:30N 32°50' W 117°48'917.1
2017-May-18 02:01N 32°46' W 117°39'5288.4
2017-May-18 02:00N 32°42' W 117°36'510.6 290 / 101011.210.8 17.013.517.0
2017-May-18 01:31N 32°43' W 117°30'816.6
2017-May-18 01:01N 32°39' W 117°21'612.7
2017-May-18 00:30N 32°39' W 117°14'5 9.2
2017-May-18 00:00N 32°43' W 117°12'1 0.1
2017-May-17 13:56N 32°43' W 117°11'0 0.0
2017-May-17 13:26N 32°43' W 117°11'0 0.7
2017-May-17 13:00N 32°43' W 117°11'3 6.1
2017-May-17 12:30N 32°41' W 117°14'4 8.8
2017-May-17 12:00N 32°37' W 117°14'4 8.1
2017-May-17 11:30N 32°35' W 117°19'4 8.3
2017-May-17 11:00N 32°34' W 117°23'  

Dump ship's entire track history